Casper, WY

1:30 PM MDT on August 21, 2014 (GMT -0600)
Natrona County International | Change Station
CLOSE
Current Station
Airport
Location: Casper,
Elevation: 5289 ft
Nearby Weather Stations

Elev 5289 ft 42.90 °N, 106.47 °W | Updated 37 minutes ago

Mostly Cloudy
Mostly Cloudy
79 °F
Feels Like 79 °F
N
18
Wind Variable Wind from SW
Gusts 32 mph

Today
High -- | Low -- °F
--% Chance of Precip.
Yesterday
High -- | Low -- °F
Precip. -- in
6:18 AM 7:57 PM
Waning Crescent, 12% visible
Pressure 29.87 in
Visibility 10.0 miles
Clouds Mostly Cloudy 8500 ft
Dew Point 41 °F
Humidity 26%
Rainfall 0.00 in
Snow Depth 0 in
UV 5 out of 12
Pollen 9.70 out of 12
Air Quality Not available.
Flu Activity Not available.
METAR KCPR 211853Z 23016G28KT 10SM BKN085 26/05 A3007 RMK AO2 PK WND 24028/1844 SLP113 T02610050

More Conditions Fewer Conditions

Pressure 29.87 in
Visibility 10.0 miles
Clouds Mostly Cloudy 8500 ft
Dew Point 41 °F
Humidity 26%
Rainfall 0.00 in
Snow Depth 0 in
UV 5 out of 12
Pollen 9.70 out of 12
Air Quality Not available.
Flu Activity Not available.
METAR KCPR 211853Z 23016G28KT 10SM BKN085 26/05 A3007 RMK AO2 PK WND 24028/1844 SLP113 T02610050

More Conditions Fewer Conditions

10-Day Weather Forecast

Almanac

Astronomy

Aug. 21, 2014 Rise Set
Actual Time 6:18 AM MDT 7:57 PM MDT
Civil Twilight 5:48 AM MDT 8:27 PM MDT
Nautical Twilight 5:11 AM MDT 9:04 PM MDT
Astronomical Twilight 4:32 AM MDT 9:42 PM MDT
Moon 2:48 AM MDT 5:30 PM MDT
Length of Visible Light 14h 39m
Length of Day
13h 39m
Tomorrow will be 2m 41s shorter.
Waning Crescent, 12% of the Moon is Illuminated
Today
Waning Crescent
Aug 25
New
Sep 2
First Quarter
Sep 8
Full
Sep 15
Last Quarter

Today's Extremes

State Highs State Lows

Community

WunderPhotos

Upload Photos

1,746,010 photos uploaded!

WunderBlogs® & News

Nearby

Snow Depth

Station Depth Elevation
Casper Mountain 0 in 7850 ft
Grave Springs 1 in 8550 ft
Middle Powder 0 in 7760 ft
Hansen Sawmill 0 in 8360 ft
Cinnabar Park 0 in 9690 ft

Earthquake Activity

City Distance Mag. Time & Date
No recent earthquake activity has been reported nearby.
Minimum magnitude displayed is 2.5.

Coastal Water Temperatures

Place Temperature
No Stations Reporting

Nearby Weather Stations